Terminal Aerodrome Forecast
Issued by NWS

Home | Current Version | Previous Version | Text Only | Print | Product List | Glossary On
Versions: 1 2 3 4 5 6 7 8 9 10 11 12 13 14 15 16 17 18 19 20 21 22 23 24 25 26 27 28 29 30 31
000
FTUS45 KGJT 261141
TAFCNY
TAF
KCNY 261141Z 2612/2712 32006KT P6SM VCSH SCT120 BKN200
     FM261500 VRB04KT P6SM FEW100 SCT120 SCT200
     FM261900 27008G15KT P6SM SCT100 BKN150
     FM270200 02005KT P6SM SCT100 BKN150=

USA.gov is the U.S. government's official web portal to all federal, state and local government web resources and services.